sensor_id;sensor_type;location;lat;lon;timestamp;P1;durP1;ratioP1;P2;durP2;ratioP2
7529;SDS011;3806;52.270;10.544;2023-04-24T00:00:54;1.50;;;0.85;;
7529;SDS011;3806;52.270;10.544;2023-04-24T00:03:21;1.25;;;0.73;;
7529;SDS011;3806;52.270;10.544;2023-04-24T00:05:48;1.48;;;0.93;;
7529;SDS011;3806;52.270;10.544;2023-04-24T00:08:13;1.73;;;1.10;;
7529;SDS011;3806;52.270;10.544;2023-04-24T00:10:39;1.40;;;0.90;;
7529;SDS011;3806;52.270;10.544;2023-04-24T00:13:05;2.20;;;0.82;;
7529;SDS011;3806;52.270;10.544;2023-04-24T00:15:30;0.60;;;0.60;;
7529;SDS011;3806;52.270;10.544;2023-04-24T00:17:56;1.40;;;1.00;;
7529;SDS011;3806;52.270;10.544;2023-04-24T00:20:22;1.88;;;0.88;;
7529;SDS011;3806;52.270;10.544;2023-04-24T00:22:47;1.83;;;0.98;;
7529;SDS011;3806;52.270;10.544;2023-04-24T00:25:13;2.38;;;0.90;;
7529;SDS011;3806;52.270;10.544;2023-04-24T00:27:38;1.25;;;0.85;;
7529;SDS011;3806;52.270;10.544;2023-04-24T00:30:04;0.77;;;0.57;;
7529;SDS011;3806;52.270;10.544;2023-04-24T00:32:31;1.77;;;0.95;;
7529;SDS011;3806;52.270;10.544;2023-04-24T00:34:56;0.75;;;0.68;;
7529;SDS011;3806;52.270;10.544;2023-04-24T00:37:21;1.02;;;0.82;;
7529;SDS011;3806;52.270;10.544;2023-04-24T00:39:47;3.17;;;0.90;;
7529;SDS011;3806;52.270;10.544;2023-04-24T00:42:13;0.77;;;0.73;;
7529;SDS011;3806;52.270;10.544;2023-04-24T00:44:38;1.52;;;0.77;;
7529;SDS011;3806;52.270;10.544;2023-04-24T00:47:04;0.90;;;0.88;;
7529;SDS011;3806;52.270;10.544;2023-04-24T00:49:29;4.22;;;1.73;;
7529;SDS011;3806;52.270;10.544;2023-04-24T00:51:55;1.45;;;0.90;;
7529;SDS011;3806;52.270;10.544;2023-04-24T00:54:21;1.90;;;0.88;;
7529;SDS011;3806;52.270;10.544;2023-04-24T00:56:47;2.17;;;0.70;;
7529;SDS011;3806;52.270;10.544;2023-04-24T00:59:13;1.10;;;1.02;;
7529;SDS011;3806;52.270;10.544;2023-04-24T01:01:41;1.65;;;0.80;;
7529;SDS011;3806;52.270;10.544;2023-04-24T01:04:08;1.00;;;0.70;;
7529;SDS011;3806;52.270;10.544;2023-04-24T01:06:35;4.10;;;1.00;;
7529;SDS011;3806;52.270;10.544;2023-04-24T01:09:06;1.45;;;0.80;;
7529;SDS011;3806;52.270;10.544;2023-04-24T01:11:35;0.73;;;0.65;;
7529;SDS011;3806;52.270;10.544;2023-04-24T01:14:01;2.25;;;0.82;;
7529;SDS011;3806;52.270;10.544;2023-04-24T01:16:26;0.98;;;0.90;;
7529;SDS011;3806;52.270;10.544;2023-04-24T01:18:52;4.68;;;1.10;;
7529;SDS011;3806;52.270;10.544;2023-04-24T01:21:18;2.22;;;1.00;;
7529;SDS011;3806;52.270;10.544;2023-04-24T01:23:46;2.60;;;1.23;;
7529;SDS011;3806;52.270;10.544;2023-04-24T01:26:12;1.33;;;0.75;;
7529;SDS011;3806;52.270;10.544;2023-04-24T01:28:40;2.25;;;0.95;;
7529;SDS011;3806;52.270;10.544;2023-04-24T01:31:06;1.98;;;0.80;;
7529;SDS011;3806;52.270;10.544;2023-04-24T01:33:32;2.88;;;1.20;;
7529;SDS011;3806;52.270;10.544;2023-04-24T01:35:57;2.80;;;1.20;;
7529;SDS011;3806;52.270;10.544;2023-04-24T01:38:23;1.83;;;1.02;;
7529;SDS011;3806;52.270;10.544;2023-04-24T01:40:49;1.02;;;0.60;;
7529;SDS011;3806;52.270;10.544;2023-04-24T01:43:15;1.85;;;1.10;;
7529;SDS011;3806;52.270;10.544;2023-04-24T01:45:41;1.35;;;1.00;;
7529;SDS011;3806;52.270;10.544;2023-04-24T01:48:06;0.82;;;0.70;;
7529;SDS011;3806;52.270;10.544;2023-04-24T01:50:32;0.88;;;0.60;;
7529;SDS011;3806;52.270;10.544;2023-04-24T01:52:57;4.32;;;0.80;;
7529;SDS011;3806;52.270;10.544;2023-04-24T01:55:23;4.35;;;1.33;;
7529;SDS011;3806;52.270;10.544;2023-04-24T01:57:49;0.80;;;0.80;;
7529;SDS011;3806;52.270;10.544;2023-04-24T02:00:16;1.17;;;0.73;;
7529;SDS011;3806;52.270;10.544;2023-04-24T02:02:42;0.73;;;0.73;;
7529;SDS011;3806;52.270;10.544;2023-04-24T02:05:08;1.30;;;0.80;;
7529;SDS011;3806;52.270;10.544;2023-04-24T02:07:33;0.85;;;0.77;;
7529;SDS011;3806;52.270;10.544;2023-04-24T02:09:59;1.48;;;0.90;;
7529;SDS011;3806;52.270;10.544;2023-04-24T02:12:24;1.42;;;0.93;;
7529;SDS011;3806;52.270;10.544;2023-04-24T02:14:51;1.88;;;1.00;;
7529;SDS011;3806;52.270;10.544;2023-04-24T02:17:17;1.20;;;0.93;;
7529;SDS011;3806;52.270;10.544;2023-04-24T02:19:44;1.30;;;1.10;;
7529;SDS011;3806;52.270;10.544;2023-04-24T02:22:09;2.28;;;0.90;;
7529;SDS011;3806;52.270;10.544;2023-04-24T02:24:35;1.75;;;1.05;;
7529;SDS011;3806;52.270;10.544;2023-04-24T02:27:01;1.05;;;0.95;;
7529;SDS011;3806;52.270;10.544;2023-04-24T02:29:27;1.92;;;0.95;;
7529;SDS011;3806;52.270;10.544;2023-04-24T02:31:53;1.95;;;1.17;;
7529;SDS011;3806;52.270;10.544;2023-04-24T02:34:18;1.27;;;0.88;;
7529;SDS011;3806;52.270;10.544;2023-04-24T02:36:44;2.47;;;1.05;;
7529;SDS011;3806;52.270;10.544;2023-04-24T02:39:09;1.45;;;0.90;;
7529;SDS011;3806;52.270;10.544;2023-04-24T02:41:35;4.25;;;1.10;;
7529;SDS011;3806;52.270;10.544;2023-04-24T02:44:00;1.15;;;1.00;;
7529;SDS011;3806;52.270;10.544;2023-04-24T02:46:26;1.70;;;1.17;;
7529;SDS011;3806;52.270;10.544;2023-04-24T02:48:51;3.78;;;1.10;;
7529;SDS011;3806;52.270;10.544;2023-04-24T02:51:17;1.02;;;0.93;;
7529;SDS011;3806;52.270;10.544;2023-04-24T02:53:42;1.38;;;0.88;;
7529;SDS011;3806;52.270;10.544;2023-04-24T02:56:08;2.83;;;1.10;;
7529;SDS011;3806;52.270;10.544;2023-04-24T02:58:37;3.33;;;1.00;;
7529;SDS011;3806;52.270;10.544;2023-04-24T03:01:02;1.75;;;1.33;;
7529;SDS011;3806;52.270;10.544;2023-04-24T03:03:28;2.30;;;1.30;;
7529;SDS011;3806;52.270;10.544;2023-04-24T03:05:53;2.70;;;1.40;;
7529;SDS011;3806;52.270;10.544;2023-04-24T03:08:20;2.40;;;1.60;;
7529;SDS011;3806;52.270;10.544;2023-04-24T03:10:45;2.72;;;1.58;;
7529;SDS011;3806;52.270;10.544;2023-04-24T03:13:11;3.60;;;1.60;;
7529;SDS011;3806;52.270;10.544;2023-04-24T03:15:37;3.15;;;1.55;;
7529;SDS011;3806;52.270;10.544;2023-04-24T03:18:03;3.58;;;1.80;;
7529;SDS011;3806;52.270;10.544;2023-04-24T03:20:28;5.10;;;1.23;;
7529;SDS011;3806;52.270;10.544;2023-04-24T03:22:54;1.80;;;1.30;;
7529;SDS011;3806;52.270;10.544;2023-04-24T03:25:21;1.13;;;0.77;;
7529;SDS011;3806;52.270;10.544;2023-04-24T03:27:46;3.97;;;1.17;;
7529;SDS011;3806;52.270;10.544;2023-04-24T03:30:12;1.10;;;0.85;;
7529;SDS011;3806;52.270;10.544;2023-04-24T03:32:37;1.93;;;1.17;;
7529;SDS011;3806;52.270;10.544;2023-04-24T03:35:04;1.55;;;0.90;;
7529;SDS011;3806;52.270;10.544;2023-04-24T03:37:32;2.60;;;1.15;;
7529;SDS011;3806;52.270;10.544;2023-04-24T03:39:57;2.42;;;1.20;;
7529;SDS011;3806;52.270;10.544;2023-04-24T03:42:23;1.75;;;1.00;;
7529;SDS011;3806;52.270;10.544;2023-04-24T03:44:48;1.85;;;0.90;;
7529;SDS011;3806;52.270;10.544;2023-04-24T03:47:14;2.17;;;0.93;;
7529;SDS011;3806;52.270;10.544;2023-04-24T03:49:40;2.08;;;0.75;;
7529;SDS011;3806;52.270;10.544;2023-04-24T03:52:05;2.70;;;1.10;;
7529;SDS011;3806;52.270;10.544;2023-04-24T03:54:31;1.05;;;0.80;;
7529;SDS011;3806;52.270;10.544;2023-04-24T03:56:57;2.47;;;1.27;;
7529;SDS011;3806;52.270;10.544;2023-04-24T03:59:23;2.42;;;1.15;;
7529;SDS011;3806;52.270;10.544;2023-04-24T04:01:49;1.58;;;1.10;;
7529;SDS011;3806;52.270;10.544;2023-04-24T04:04:14;1.05;;;0.60;;
7529;SDS011;3806;52.270;10.544;2023-04-24T04:06:40;2.00;;;1.20;;
7529;SDS011;3806;52.270;10.544;2023-04-24T04:09:05;2.97;;;1.13;;
7529;SDS011;3806;52.270;10.544;2023-04-24T04:11:32;1.48;;;1.02;;
7529;SDS011;3806;52.270;10.544;2023-04-24T04:13:57;3.65;;;1.27;;
7529;SDS011;3806;52.270;10.544;2023-04-24T04:16:23;1.50;;;1.08;;
7529;SDS011;3806;52.270;10.544;2023-04-24T04:18:49;1.77;;;1.00;;
7529;SDS011;3806;52.270;10.544;2023-04-24T04:21:14;1.98;;;1.00;;
7529;SDS011;3806;52.270;10.544;2023-04-24T04:23:40;3.08;;;1.13;;
7529;SDS011;3806;52.270;10.544;2023-04-24T04:26:06;2.97;;;2.25;;
7529;SDS011;3806;52.270;10.544;2023-04-24T04:28:32;2.70;;;1.48;;
7529;SDS011;3806;52.270;10.544;2023-04-24T04:30:58;1.90;;;1.00;;
7529;SDS011;3806;52.270;10.544;2023-04-24T04:33:24;2.40;;;1.23;;
7529;SDS011;3806;52.270;10.544;2023-04-24T04:35:50;2.80;;;1.23;;
7529;SDS011;3806;52.270;10.544;2023-04-24T04:38:17;1.70;;;1.05;;
7529;SDS011;3806;52.270;10.544;2023-04-24T04:40:43;4.70;;;1.10;;
7529;SDS011;3806;52.270;10.544;2023-04-24T04:43:09;2.20;;;0.98;;
7529;SDS011;3806;52.270;10.544;2023-04-24T04:45:35;2.33;;;1.10;;
7529;SDS011;3806;52.270;10.544;2023-04-24T04:48:02;2.40;;;1.45;;
7529;SDS011;3806;52.270;10.544;2023-04-24T04:50:28;2.95;;;1.23;;
7529;SDS011;3806;52.270;10.544;2023-04-24T04:52:54;4.60;;;1.75;;
7529;SDS011;3806;52.270;10.544;2023-04-24T04:55:19;3.33;;;1.27;;
7529;SDS011;3806;52.270;10.544;2023-04-24T04:57:45;2.38;;;1.23;;
7529;SDS011;3806;52.270;10.544;2023-04-24T05:00:11;2.03;;;1.00;;
7529;SDS011;3806;52.270;10.544;2023-04-24T05:02:38;3.30;;;1.58;;
7529;SDS011;3806;52.270;10.544;2023-04-24T05:05:04;3.95;;;1.23;;
7529;SDS011;3806;52.270;10.544;2023-04-24T05:07:31;2.35;;;1.35;;
7529;SDS011;3806;52.270;10.544;2023-04-24T05:09:57;3.22;;;1.30;;
7529;SDS011;3806;52.270;10.544;2023-04-24T05:12:23;2.85;;;1.23;;
7529;SDS011;3806;52.270;10.544;2023-04-24T05:14:49;2.80;;;1.40;;
7529;SDS011;3806;52.270;10.544;2023-04-24T05:17:14;1.33;;;1.00;;
7529;SDS011;3806;52.270;10.544;2023-04-24T05:19:41;3.28;;;1.25;;
7529;SDS011;3806;52.270;10.544;2023-04-24T05:22:06;1.13;;;0.90;;
7529;SDS011;3806;52.270;10.544;2023-04-24T05:24:35;0.90;;;0.80;;
7529;SDS011;3806;52.270;10.544;2023-04-24T05:27:02;2.97;;;0.90;;
7529;SDS011;3806;52.270;10.544;2023-04-24T05:29:30;0.47;;;0.47;;
7529;SDS011;3806;52.270;10.544;2023-04-24T05:31:57;0.70;;;0.70;;
7529;SDS011;3806;52.270;10.544;2023-04-24T05:34:23;1.00;;;0.90;;
7529;SDS011;3806;52.270;10.544;2023-04-24T05:36:49;0.77;;;0.68;;
7529;SDS011;3806;52.270;10.544;2023-04-24T05:39:15;2.20;;;0.75;;
7529;SDS011;3806;52.270;10.544;2023-04-24T05:41:41;1.75;;;0.80;;
7529;SDS011;3806;52.270;10.544;2023-04-24T05:44:07;3.17;;;1.00;;
7529;SDS011;3806;52.270;10.544;2023-04-24T05:46:33;1.65;;;0.73;;
7529;SDS011;3806;52.270;10.544;2023-04-24T05:48:59;0.40;;;0.40;;
7529;SDS011;3806;52.270;10.544;2023-04-24T05:51:24;2.28;;;0.75;;
7529;SDS011;3806;52.270;10.544;2023-04-24T05:53:51;1.10;;;0.90;;
7529;SDS011;3806;52.270;10.544;2023-04-24T05:56:17;3.70;;;1.42;;
7529;SDS011;3806;52.270;10.544;2023-04-24T05:58:42;2.25;;;0.80;;
7529;SDS011;3806;52.270;10.544;2023-04-24T06:01:08;2.65;;;0.90;;
7529;SDS011;3806;52.270;10.544;2023-04-24T06:03:34;2.47;;;0.82;;
7529;SDS011;3806;52.270;10.544;2023-04-24T06:06:00;2.05;;;0.80;;
7529;SDS011;3806;52.270;10.544;2023-04-24T06:08:25;1.00;;;0.90;;
7529;SDS011;3806;52.270;10.544;2023-04-24T06:10:51;1.85;;;0.80;;
7529;SDS011;3806;52.270;10.544;2023-04-24T06:13:16;0.75;;;0.50;;
7529;SDS011;3806;52.270;10.544;2023-04-24T06:15:43;1.10;;;0.80;;
7529;SDS011;3806;52.270;10.544;2023-04-24T06:18:08;1.20;;;0.70;;
7529;SDS011;3806;52.270;10.544;2023-04-24T06:20:35;0.95;;;0.60;;
7529;SDS011;3806;52.270;10.544;2023-04-24T06:23:01;4.68;;;0.95;;
7529;SDS011;3806;52.270;10.544;2023-04-24T06:25:27;1.10;;;1.00;;
7529;SDS011;3806;52.270;10.544;2023-04-24T06:27:55;1.75;;;1.05;;
7529;SDS011;3806;52.270;10.544;2023-04-24T06:30:21;2.08;;;0.90;;
7529;SDS011;3806;52.270;10.544;2023-04-24T06:32:46;1.60;;;1.00;;
7529;SDS011;3806;52.270;10.544;2023-04-24T06:35:12;1.05;;;0.70;;
7529;SDS011;3806;52.270;10.544;2023-04-24T06:37:41;1.05;;;0.82;;
7529;SDS011;3806;52.270;10.544;2023-04-24T06:40:07;2.88;;;0.93;;
7529;SDS011;3806;52.270;10.544;2023-04-24T06:42:34;1.63;;;0.80;;
7529;SDS011;3806;52.270;10.544;2023-04-24T06:45:00;1.23;;;0.90;;
7529;SDS011;3806;52.270;10.544;2023-04-24T06:47:26;1.00;;;0.75;;
7529;SDS011;3806;52.270;10.544;2023-04-24T06:49:51;1.48;;;0.80;;
7529;SDS011;3806;52.270;10.544;2023-04-24T06:52:17;1.83;;;0.80;;
7529;SDS011;3806;52.270;10.544;2023-04-24T06:54:43;1.63;;;0.90;;
7529;SDS011;3806;52.270;10.544;2023-04-24T06:57:09;1.80;;;0.85;;
7529;SDS011;3806;52.270;10.544;2023-04-24T06:59:35;2.40;;;1.27;;
7529;SDS011;3806;52.270;10.544;2023-04-24T07:02:01;3.72;;;1.23;;
7529;SDS011;3806;52.270;10.544;2023-04-24T07:04:26;3.60;;;1.30;;
7529;SDS011;3806;52.270;10.544;2023-04-24T07:06:53;5.93;;;1.42;;
7529;SDS011;3806;52.270;10.544;2023-04-24T07:09:22;3.00;;;1.20;;
7529;SDS011;3806;52.270;10.544;2023-04-24T07:11:50;4.07;;;1.33;;
7529;SDS011;3806;52.270;10.544;2023-04-24T07:14:16;2.65;;;1.23;;
7529;SDS011;3806;52.270;10.544;2023-04-24T07:16:42;3.65;;;1.70;;
7529;SDS011;3806;52.270;10.544;2023-04-24T07:19:08;4.22;;;1.38;;
7529;SDS011;3806;52.270;10.544;2023-04-24T07:21:34;3.03;;;1.88;;
7529;SDS011;3806;52.270;10.544;2023-04-24T07:24:00;2.83;;;1.00;;
7529;SDS011;3806;52.270;10.544;2023-04-24T07:26:26;2.25;;;1.10;;
7529;SDS011;3806;52.270;10.544;2023-04-24T07:28:53;0.93;;;0.70;;
7529;SDS011;3806;52.270;10.544;2023-04-24T07:31:18;1.92;;;0.77;;
7529;SDS011;3806;52.270;10.544;2023-04-24T07:33:44;0.65;;;0.60;;
7529;SDS011;3806;52.270;10.544;2023-04-24T07:36:11;0.65;;;0.52;;
7529;SDS011;3806;52.270;10.544;2023-04-24T07:38:40;0.57;;;0.57;;
7529;SDS011;3806;52.270;10.544;2023-04-24T07:41:12;0.98;;;0.70;;
7529;SDS011;3806;52.270;10.544;2023-04-24T07:43:38;1.27;;;0.45;;
7529;SDS011;3806;52.270;10.544;2023-04-24T07:46:04;1.08;;;0.60;;
7529;SDS011;3806;52.270;10.544;2023-04-24T07:48:30;0.85;;;0.60;;
7529;SDS011;3806;52.270;10.544;2023-04-24T07:50:56;1.33;;;0.90;;
7529;SDS011;3806;52.270;10.544;2023-04-24T07:53:21;1.30;;;0.85;;
7529;SDS011;3806;52.270;10.544;2023-04-24T07:55:47;1.02;;;0.70;;
7529;SDS011;3806;52.270;10.544;2023-04-24T07:58:12;1.10;;;0.90;;
7529;SDS011;3806;52.270;10.544;2023-04-24T08:00:38;1.88;;;0.98;;
7529;SDS011;3806;52.270;10.544;2023-04-24T08:03:04;1.33;;;1.10;;
7529;SDS011;3806;52.270;10.544;2023-04-24T08:05:29;1.65;;;0.93;;
7529;SDS011;3806;52.270;10.544;2023-04-24T08:07:55;1.60;;;0.98;;
7529;SDS011;3806;52.270;10.544;2023-04-24T08:10:21;1.58;;;1.30;;
7529;SDS011;3806;52.270;10.544;2023-04-24T08:12:48;1.30;;;1.20;;
7529;SDS011;3806;52.270;10.544;2023-04-24T08:15:13;3.92;;;1.70;;
7529;SDS011;3806;52.270;10.544;2023-04-24T08:17:39;1.00;;;0.93;;
7529;SDS011;3806;52.270;10.544;2023-04-24T08:20:05;0.95;;;0.90;;
7529;SDS011;3806;52.270;10.544;2023-04-24T08:22:35;2.83;;;1.13;;
7529;SDS011;3806;52.270;10.544;2023-04-24T08:25:00;1.38;;;0.82;;
7529;SDS011;3806;52.270;10.544;2023-04-24T08:27:26;1.92;;;1.30;;
7529;SDS011;3806;52.270;10.544;2023-04-24T08:29:53;2.88;;;1.30;;
7529;SDS011;3806;52.270;10.544;2023-04-24T08:32:18;3.03;;;1.17;;
7529;SDS011;3806;52.270;10.544;2023-04-24T08:34:44;1.10;;;0.95;;
7529;SDS011;3806;52.270;10.544;2023-04-24T08:37:10;1.85;;;1.00;;
7529;SDS011;3806;52.270;10.544;2023-04-24T08:39:36;3.05;;;1.25;;
7529;SDS011;3806;52.270;10.544;2023-04-24T08:42:01;2.63;;;1.10;;
7529;SDS011;3806;52.270;10.544;2023-04-24T08:44:31;1.50;;;1.08;;
7529;SDS011;3806;52.270;10.544;2023-04-24T08:46:57;2.08;;;1.13;;
7529;SDS011;3806;52.270;10.544;2023-04-24T08:49:23;2.78;;;1.40;;
7529;SDS011;3806;52.270;10.544;2023-04-24T08:51:50;2.17;;;1.50;;
7529;SDS011;3806;52.270;10.544;2023-04-24T08:54:17;1.50;;;1.10;;
7529;SDS011;3806;52.270;10.544;2023-04-24T08:56:43;1.50;;;0.82;;
7529;SDS011;3806;52.270;10.544;2023-04-24T08:59:09;1.83;;;0.93;;
7529;SDS011;3806;52.270;10.544;2023-04-24T09:01:35;2.13;;;1.40;;
7529;SDS011;3806;52.270;10.544;2023-04-24T09:04:04;1.85;;;1.42;;
7529;SDS011;3806;52.270;10.544;2023-04-24T09:06:32;2.20;;;1.67;;
7529;SDS011;3806;52.270;10.544;2023-04-24T09:09:00;1.70;;;1.20;;
7529;SDS011;3806;52.270;10.544;2023-04-24T09:11:26;1.65;;;1.20;;
7529;SDS011;3806;52.270;10.544;2023-04-24T09:13:55;2.08;;;1.55;;
7529;SDS011;3806;52.270;10.544;2023-04-24T09:16:21;1.90;;;1.52;;
7529;SDS011;3806;52.270;10.544;2023-04-24T09:18:49;2.28;;;1.00;;
7529;SDS011;3806;52.270;10.544;2023-04-24T09:21:15;1.45;;;1.10;;
7529;SDS011;3806;52.270;10.544;2023-04-24T09:23:40;2.60;;;1.40;;
7529;SDS011;3806;52.270;10.544;2023-04-24T09:26:06;2.33;;;1.67;;
7529;SDS011;3806;52.270;10.544;2023-04-24T09:28:36;4.28;;;1.38;;
7529;SDS011;3806;52.270;10.544;2023-04-24T09:33:38;2.40;;;1.50;;
7529;SDS011;3806;52.270;10.544;2023-04-24T09:36:04;2.25;;;1.20;;
7529;SDS011;3806;52.270;10.544;2023-04-24T09:38:37;2.78;;;1.80;;
7529;SDS011;3806;52.270;10.544;2023-04-24T09:41:06;1.50;;;1.10;;
7529;SDS011;3806;52.270;10.544;2023-04-24T09:43:33;2.00;;;1.38;;
7529;SDS011;3806;52.270;10.544;2023-04-24T09:46:04;2.17;;;1.30;;
7529;SDS011;3806;52.270;10.544;2023-04-24T09:48:31;2.08;;;1.80;;
7529;SDS011;3806;52.270;10.544;2023-04-24T09:51:01;1.83;;;1.58;;
7529;SDS011;3806;52.270;10.544;2023-04-24T09:53:29;2.58;;;1.70;;
7529;SDS011;3806;52.270;10.544;2023-04-24T09:55:56;3.35;;;1.75;;
7529;SDS011;3806;52.270;10.544;2023-04-24T09:58:28;3.95;;;1.65;;
7529;SDS011;3806;52.270;10.544;2023-04-24T10:00:54;1.92;;;1.50;;
7529;SDS011;3806;52.270;10.544;2023-04-24T10:03:22;2.13;;;1.55;;
7529;SDS011;3806;52.270;10.544;2023-04-24T10:05:51;1.88;;;1.35;;
7529;SDS011;3806;52.270;10.544;2023-04-24T10:08:17;3.17;;;1.30;;
7529;SDS011;3806;52.270;10.544;2023-04-24T10:10:44;2.80;;;1.30;;
7529;SDS011;3806;52.270;10.544;2023-04-24T10:13:11;2.22;;;1.58;;
7529;SDS011;3806;52.270;10.544;2023-04-24T10:15:38;1.40;;;1.10;;
7529;SDS011;3806;52.270;10.544;2023-04-24T10:18:05;3.90;;;1.60;;
7529;SDS011;3806;52.270;10.544;2023-04-24T10:20:32;3.03;;;1.50;;
7529;SDS011;3806;52.270;10.544;2023-04-24T10:22:59;1.85;;;1.60;;
7529;SDS011;3806;52.270;10.544;2023-04-24T10:25:26;2.22;;;1.75;;
7529;SDS011;3806;52.270;10.544;2023-04-24T10:27:53;2.90;;;1.60;;
7529;SDS011;3806;52.270;10.544;2023-04-24T10:30:22;2.10;;;1.55;;
7529;SDS011;3806;52.270;10.544;2023-04-24T10:32:48;3.35;;;1.55;;
7529;SDS011;3806;52.270;10.544;2023-04-24T10:35:14;2.90;;;1.60;;
7529;SDS011;3806;52.270;10.544;2023-04-24T10:37:45;2.38;;;1.83;;
7529;SDS011;3806;52.270;10.544;2023-04-24T10:40:24;3.33;;;2.13;;
7529;SDS011;3806;52.270;10.544;2023-04-24T10:42:58;2.63;;;1.67;;
7529;SDS011;3806;52.270;10.544;2023-04-24T10:45:25;3.00;;;2.25;;
7529;SDS011;3806;52.270;10.544;2023-04-24T10:47:56;4.35;;;1.90;;
7529;SDS011;3806;52.270;10.544;2023-04-24T10:53:13;2.25;;;1.77;;
7529;SDS011;3806;52.270;10.544;2023-04-24T10:56:08;2.88;;;1.70;;
7529;SDS011;3806;52.270;10.544;2023-04-24T11:01:06;2.45;;;1.40;;
7529;SDS011;3806;52.270;10.544;2023-04-24T11:03:33;4.45;;;1.40;;
7529;SDS011;3806;52.270;10.544;2023-04-24T11:06:08;1.27;;;1.17;;
7529;SDS011;3806;52.270;10.544;2023-04-24T11:08:38;1.90;;;1.38;;
7529;SDS011;3806;52.270;10.544;2023-04-24T11:11:11;1.13;;;1.00;;
7529;SDS011;3806;52.270;10.544;2023-04-24T11:19:02;2.22;;;1.17;;
7529;SDS011;3806;52.270;10.544;2023-04-24T11:21:38;1.95;;;1.20;;
7529;SDS011;3806;52.270;10.544;2023-04-24T11:26:53;2.00;;;1.00;;
7529;SDS011;3806;52.270;10.544;2023-04-24T11:29:20;4.60;;;1.17;;
7529;SDS011;3806;52.270;10.544;2023-04-24T11:31:46;1.05;;;0.80;;
7529;SDS011;3806;52.270;10.544;2023-04-24T11:34:14;1.98;;;1.10;;
7529;SDS011;3806;52.270;10.544;2023-04-24T11:36:44;1.77;;;1.20;;
7529;SDS011;3806;52.270;10.544;2023-04-24T11:39:12;1.80;;;1.20;;
7529;SDS011;3806;52.270;10.544;2023-04-24T11:41:38;1.67;;;1.15;;
7529;SDS011;3806;52.270;10.544;2023-04-24T11:44:08;1.73;;;1.42;;
7529;SDS011;3806;52.270;10.544;2023-04-24T11:46:35;2.13;;;1.10;;
7529;SDS011;3806;52.270;10.544;2023-04-24T11:49:02;1.50;;;1.08;;
7529;SDS011;3806;52.270;10.544;2023-04-24T11:51:28;2.10;;;1.00;;
7529;SDS011;3806;52.270;10.544;2023-04-24T11:53:54;1.23;;;1.00;;
7529;SDS011;3806;52.270;10.544;2023-04-24T11:56:21;2.63;;;1.40;;
7529;SDS011;3806;52.270;10.544;2023-04-24T11:58:47;1.65;;;1.15;;
7529;SDS011;3806;52.270;10.544;2023-04-24T12:01:13;1.15;;;0.90;;
7529;SDS011;3806;52.270;10.544;2023-04-24T12:03:39;1.83;;;1.20;;
7529;SDS011;3806;52.270;10.544;2023-04-24T12:06:08;3.45;;;1.10;;
7529;SDS011;3806;52.270;10.544;2023-04-24T12:08:34;1.27;;;0.90;;
7529;SDS011;3806;52.270;10.544;2023-04-24T12:11:04;1.77;;;1.20;;
7529;SDS011;3806;52.270;10.544;2023-04-24T12:13:32;1.90;;;1.30;;
7529;SDS011;3806;52.270;10.544;2023-04-24T12:15:58;2.45;;;1.20;;
7529;SDS011;3806;52.270;10.544;2023-04-24T12:18:23;1.88;;;1.33;;
7529;SDS011;3806;52.270;10.544;2023-04-24T12:20:49;2.42;;;1.30;;
7529;SDS011;3806;52.270;10.544;2023-04-24T12:23:15;2.13;;;1.10;;
7529;SDS011;3806;52.270;10.544;2023-04-24T12:25:41;2.97;;;1.13;;
7529;SDS011;3806;52.270;10.544;2023-04-24T12:30:40;1.85;;;1.30;;
7529;SDS011;3806;52.270;10.544;2023-04-24T12:33:09;2.97;;;1.20;;
7529;SDS011;3806;52.270;10.544;2023-04-24T12:35:35;2.50;;;1.23;;
7529;SDS011;3806;52.270;10.544;2023-04-24T12:38:07;1.02;;;0.95;;
7529;SDS011;3806;52.270;10.544;2023-04-24T12:40:35;2.90;;;1.35;;
7529;SDS011;3806;52.270;10.544;2023-04-24T12:43:01;2.30;;;1.42;;
7529;SDS011;3806;52.270;10.544;2023-04-24T12:45:38;1.13;;;0.95;;
7529;SDS011;3806;52.270;10.544;2023-04-24T12:48:03;1.52;;;1.27;;
7529;SDS011;3806;52.270;10.544;2023-04-24T12:50:29;2.53;;;1.27;;
7529;SDS011;3806;52.270;10.544;2023-04-24T12:52:55;0.85;;;0.65;;
7529;SDS011;3806;52.270;10.544;2023-04-24T12:55:20;1.65;;;1.25;;
7529;SDS011;3806;52.270;10.544;2023-04-24T12:57:45;1.60;;;0.90;;
7529;SDS011;3806;52.270;10.544;2023-04-24T13:00:11;1.20;;;0.90;;
7529;SDS011;3806;52.270;10.544;2023-04-24T13:02:37;1.75;;;0.80;;
7529;SDS011;3806;52.270;10.544;2023-04-24T13:05:03;0.55;;;0.40;;
7529;SDS011;3806;52.270;10.544;2023-04-24T13:07:30;0.47;;;0.47;;
7529;SDS011;3806;52.270;10.544;2023-04-24T13:09:56;0.45;;;0.43;;
7529;SDS011;3806;52.270;10.544;2023-04-24T13:12:22;0.30;;;0.20;;
7529;SDS011;3806;52.270;10.544;2023-04-24T13:14:51;1.25;;;0.20;;
7529;SDS011;3806;52.270;10.544;2023-04-24T13:17:17;0.73;;;0.20;;
7529;SDS011;3806;52.270;10.544;2023-04-24T13:19:43;0.25;;;0.20;;
7529;SDS011;3806;52.270;10.544;2023-04-24T13:22:09;0.85;;;0.65;;
7529;SDS011;3806;52.270;10.544;2023-04-24T13:24:36;0.98;;;0.43;;
7529;SDS011;3806;52.270;10.544;2023-04-24T13:27:02;0.50;;;0.47;;
7529;SDS011;3806;52.270;10.544;2023-04-24T13:29:28;0.40;;;0.40;;
7529;SDS011;3806;52.270;10.544;2023-04-24T13:31:54;0.60;;;0.57;;
7529;SDS011;3806;52.270;10.544;2023-04-24T13:34:20;0.38;;;0.38;;
7529;SDS011;3806;52.270;10.544;2023-04-24T13:36:46;0.65;;;0.65;;
7529;SDS011;3806;52.270;10.544;2023-04-24T13:39:11;0.80;;;0.60;;
7529;SDS011;3806;52.270;10.544;2023-04-24T13:41:37;3.25;;;0.90;;
7529;SDS011;3806;52.270;10.544;2023-04-24T13:44:03;0.50;;;0.50;;
7529;SDS011;3806;52.270;10.544;2023-04-24T13:46:29;0.28;;;0.28;;
7529;SDS011;3806;52.270;10.544;2023-04-24T13:48:55;0.38;;;0.38;;
7529;SDS011;3806;52.270;10.544;2023-04-24T13:51:23;0.70;;;0.52;;
7529;SDS011;3806;52.270;10.544;2023-04-24T13:53:51;0.63;;;0.63;;
7529;SDS011;3806;52.270;10.544;2023-04-24T13:56:17;0.63;;;0.57;;
7529;SDS011;3806;52.270;10.544;2023-04-24T13:58:43;0.60;;;0.52;;
7529;SDS011;3806;52.270;10.544;2023-04-24T14:01:08;2.08;;;1.00;;
7529;SDS011;3806;52.270;10.544;2023-04-24T14:03:34;1.88;;;0.90;;
7529;SDS011;3806;52.270;10.544;2023-04-24T14:05:59;1.45;;;1.05;;
7529;SDS011;3806;52.270;10.544;2023-04-24T14:08:25;1.33;;;0.98;;
7529;SDS011;3806;52.270;10.544;2023-04-24T14:10:50;1.63;;;1.05;;
7529;SDS011;3806;52.270;10.544;2023-04-24T14:13:16;1.35;;;1.10;;
7529;SDS011;3806;52.270;10.544;2023-04-24T14:15:42;1.77;;;1.10;;
7529;SDS011;3806;52.270;10.544;2023-04-24T14:18:07;1.05;;;0.85;;
7529;SDS011;3806;52.270;10.544;2023-04-24T14:20:33;1.15;;;0.80;;
7529;SDS011;3806;52.270;10.544;2023-04-24T14:22:58;0.60;;;0.60;;
7529;SDS011;3806;52.270;10.544;2023-04-24T14:25:24;1.77;;;0.77;;
7529;SDS011;3806;52.270;10.544;2023-04-24T14:27:51;0.95;;;0.70;;
7529;SDS011;3806;52.270;10.544;2023-04-24T14:30:17;1.17;;;0.57;;
7529;SDS011;3806;52.270;10.544;2023-04-24T14:32:44;1.33;;;1.00;;
7529;SDS011;3806;52.270;10.544;2023-04-24T14:35:11;0.55;;;0.55;;
7529;SDS011;3806;52.270;10.544;2023-04-24T14:37:37;0.43;;;0.43;;
7529;SDS011;3806;52.270;10.544;2023-04-24T14:40:03;1.95;;;1.02;;
7529;SDS011;3806;52.270;10.544;2023-04-24T14:42:30;0.70;;;0.57;;
7529;SDS011;3806;52.270;10.544;2023-04-24T14:44:55;1.27;;;0.60;;
7529;SDS011;3806;52.270;10.544;2023-04-24T14:47:21;1.20;;;0.73;;
7529;SDS011;3806;52.270;10.544;2023-04-24T14:49:47;0.70;;;0.63;;
7529;SDS011;3806;52.270;10.544;2023-04-24T14:52:13;0.40;;;0.40;;
7529;SDS011;3806;52.270;10.544;2023-04-24T14:54:39;1.33;;;0.50;;
7529;SDS011;3806;52.270;10.544;2023-04-24T14:57:04;0.43;;;0.43;;
7529;SDS011;3806;52.270;10.544;2023-04-24T14:59:30;0.77;;;0.55;;
7529;SDS011;3806;52.270;10.544;2023-04-24T15:01:56;0.38;;;0.38;;
7529;SDS011;3806;52.270;10.544;2023-04-24T15:04:25;5.85;;;1.67;;
7529;SDS011;3806;52.270;10.544;2023-04-24T15:06:52;1.65;;;0.95;;
7529;SDS011;3806;52.270;10.544;2023-04-24T15:09:21;0.45;;;0.45;;
7529;SDS011;3806;52.270;10.544;2023-04-24T15:11:48;1.20;;;0.70;;
7529;SDS011;3806;52.270;10.544;2023-04-24T15:14:14;0.60;;;0.38;;